Time;durP1;ratioP1;P1;durP2;ratioP2;P2;SDS_P1;SDS_P2;PMS_P1;PMS_P2;Temp;Humidity;BMP_temperature;BMP_pressure;BME280_temperature;BME280_humidity;BME280_pressure;Samples;Min_cycle;Max_cycle;Signal;HPM_P1;HPM_P2
2020/12/03 00:02:25;;;;;;;70.82;34.08;;;;;;;3.32;100.00;102023.19;5052389;28;20025;-67
2020/12/03 00:05:10;;;;;;;70.57;35.67;;;;;;;3.51;100.00;102037.59;5045983;28;20121;-67
2020/12/03 00:07:57;;;;;;;72.63;35.47;;;;;;;3.42;100.00;102034.72;5052170;28;20119;-67
2020/12/03 00:10:42;;;;;;;69.65;34.80;;;;;;;3.61;100.00;102037.94;5052105;28;20462;-66
2020/12/03 00:13:31;;;;;;;74.40;35.45;;;;;;;3.57;100.00;102043.84;5038608;28;20449;-66
2020/12/03 00:16:17;;;;;;;74.13;37.03;;;;;;;3.54;100.00;102050.66;5052334;28;20037;-67
2020/12/03 00:19:05;;;;;;;65.38;33.78;;;;;;;4.09;100.00;102042.00;5051768;28;20456;-66
2020/12/03 00:21:59;;;;;;;67.55;33.45;;;;;;;3.75;100.00;102039.25;5052217;28;20044;-67
2020/12/03 00:24:45;;;;;;;67.30;33.83;;;;;;;3.75;100.00;102039.25;5051981;28;20608;-66
2020/12/03 00:27:30;;;;;;;66.85;33.33;;;;;;;3.55;100.00;102039.44;5052137;28;20113;-67
2020/12/03 00:30:16;;;;;;;67.82;33.33;;;;;;;3.74;100.00;102041.78;5055334;28;20491;-66
2020/12/03 00:33:01;;;;;;;65.07;34.08;;;;;;;3.66;100.00;102041.53;5056536;28;20330;-66
2020/12/03 00:35:48;;;;;;;64.75;33.40;;;;;;;3.94;100.00;102040.69;5055861;28;20067;-66
2020/12/03 00:38:33;;;;;;;63.17;33.17;;;;;;;3.64;100.00;102048.41;5056223;28;20033;-66
2020/12/03 00:41:19;;;;;;;64.57;31.42;;;;;;;3.39;100.00;102035.50;5056538;28;20106;-66
2020/12/03 00:44:05;;;;;;;64.45;32.65;;;;;;;3.78;100.00;102041.91;5058151;28;20033;-66
2020/12/03 00:46:50;;;;;;;60.95;30.42;;;;;;;3.21;100.00;102042.66;5042533;28;20170;-66
2020/12/03 00:49:36;;;;;;;59.50;30.13;;;;;;;3.22;100.00;102052.16;5042772;28;20040;-67
2020/12/03 00:52:21;;;;;;;55.55;29.67;;;;;;;4.01;100.00;102035.72;5056806;28;20044;-66
2020/12/03 00:55:08;;;;;;;57.40;27.38;;;;;;;3.64;100.00;102034.53;5056313;28;20028;-67
2020/12/03 00:57:54;;;;;;;56.95;28.42;;;;;;;3.58;100.00;102036.97;5069912;28;20036;-67
2020/12/03 01:00:39;;;;;;;56.35;28.42;;;;;;;3.83;100.00;102036.88;5055889;28;20040;-67
2020/12/03 01:03:25;;;;;;;55.15;27.73;;;;;;;3.88;100.00;102031.00;5056446;28;20029;-66
2020/12/03 01:06:10;;;;;;;55.20;27.70;;;;;;;3.87;100.00;102031.81;5070085;28;20487;-66
2020/12/03 01:08:56;;;;;;;56.65;27.27;;;;;;;3.11;100.00;102030.25;5056335;28;20025;-67
2020/12/03 01:11:41;;;;;;;55.83;28.80;;;;;;;3.59;100.00;102031.84;5056826;28;20037;-67
2020/12/03 01:14:27;;;;;;;58.47;28.50;;;;;;;3.87;100.00;102020.59;5056954;28;20124;-67
2020/12/03 01:17:14;;;;;;;57.20;28.70;;;;;;;3.84;100.00;102016.19;5057220;28;20040;-66
2020/12/03 01:20:00;;;;;;;61.40;29.70;;;;;;;3.46;100.00;102018.44;5056647;28;20041;-66
2020/12/03 01:22:45;;;;;;;57.70;29.30;;;;;;;3.57;100.00;102007.56;5056962;28;20044;-66
2020/12/03 01:25:31;;;;;;;55.38;28.80;;;;;;;3.79;100.00;102004.81;5056231;28;20033;-66
2020/12/03 01:28:16;;;;;;;61.70;30.30;;;;;;;3.94;100.00;102006.97;5042492;28;20052;-66
2020/12/03 01:31:03;;;;;;;58.53;30.05;;;;;;;3.67;100.00;102004.44;5055802;28;20060;-66
2020/12/03 01:33:49;;;;;;;64.18;30.92;;;;;;;3.91;100.00;101996.50;5056179;28;20024;-67
2020/12/03 01:36:34;;;;;;;66.07;31.58;;;;;;;3.70;100.00;101999.31;5055535;28;20036;-66
2020/12/03 01:39:20;;;;;;;68.13;30.50;;;;;;;3.73;100.00;101996.84;5054739;28;20040;-67
2020/12/03 01:42:06;;;;;;;69.22;31.83;;;;;;;3.48;100.00;102003.81;5054603;28;20053;-67
2020/12/03 01:44:54;;;;;;;66.00;30.77;;;;;;;3.69;100.00;101989.81;5054619;28;20065;-67
2020/12/03 01:47:39;;;;;;;65.32;31.17;;;;;;;3.72;100.00;101996.78;5054895;28;20109;-66
2020/12/03 01:50:25;;;;;;;63.80;32.00;;;;;;;3.59;100.00;101992.97;5040356;28;20444;-67
2020/12/03 01:53:13;;;;;;;83.25;37.13;;;;;;;3.88;100.00;101984.34;5054541;28;20064;-67
2020/12/03 01:56:04;;;;;;;74.30;32.92;;;;;;;3.59;100.00;101986.91;5054440;28;20041;-67
2020/12/03 01:58:50;;;;;;;75.72;32.58;;;;;;;3.73;100.00;101976.09;5054403;28;20044;-67
2020/12/03 02:01:36;;;;;;;75.38;33.92;;;;;;;3.75;100.00;101977.03;5054257;28;20457;-67
2020/12/03 02:04:22;;;;;;;77.43;33.88;;;;;;;4.06;100.00;101978.81;5047088;28;20036;-67
2020/12/03 02:07:11;;;;;;;74.43;32.70;;;;;;;4.20;100.00;101978.38;5074086;28;20124;-67
2020/12/03 02:09:56;;;;;;;68.57;31.48;;;;;;;4.06;100.00;101979.69;5074079;28;20119;-67
2020/12/03 02:12:42;;;;;;;77.40;33.42;;;;;;;3.49;100.00;101972.78;5074513;28;20401;-67
2020/12/03 02:15:27;;;;;;;69.70;32.92;;;;;;;4.11;100.00;101970.31;5074169;28;20115;-67
2020/12/03 02:18:13;;;;;;;76.50;33.97;;;;;;;4.00;100.00;101966.56;5074153;28;20143;-67
2020/12/03 02:20:58;;;;;;;74.60;34.58;;;;;;;3.94;100.00;101961.19;5073857;28;20032;-67
2020/12/03 02:23:45;;;;;;;79.18;33.95;;;;;;;4.22;100.00;101953.34;5073829;28;20035;-67
2020/12/03 02:26:31;;;;;;;80.53;34.08;;;;;;;3.97;100.00;101952.59;5073843;28;20033;-66
2020/12/03 02:29:19;;;;;;;81.78;35.15;;;;;;;3.82;100.00;101953.03;5073690;28;20036;-67
2020/12/03 02:32:04;;;;;;;79.32;34.03;;;;;;;3.54;100.00;101945.28;5073670;28;20033;-68
2020/12/03 02:34:50;;;;;;;78.20;34.33;;;;;;;3.88;100.00;101945.47;5073611;28;20063;-66
2020/12/03 02:37:35;;;;;;;76.30;33.88;;;;;;;3.30;100.00;101933.31;5073534;28;20042;-66
2020/12/03 02:40:21;;;;;;;74.43;32.03;;;;;;;3.17;100.00;101934.63;5073366;28;20040;-67
2020/12/03 02:43:06;;;;;;;87.10;35.13;;;;;;;3.09;100.00;101933.50;5073239;28;20105;-67
2020/12/03 02:45:52;;;;;;;78.53;33.58;;;;;;;3.30;100.00;101934.16;5072958;28;20032;-67
2020/12/03 02:48:37;;;;;;;81.00;32.80;;;;;;;2.93;100.00;101926.06;5073390;28;20361;-66
2020/12/03 02:51:22;;;;;;;71.53;32.38;;;;;;;3.22;100.00;101927.03;5072603;28;20448;-67
2020/12/03 02:54:10;;;;;;;82.53;34.47;;;;;;;3.45;100.00;101932.06;5073257;28;20429;-67
2020/12/03 02:56:55;;;;;;;79.55;32.90;;;;;;;3.29;100.00;101923.75;5059448;28;20150;-67
2020/12/03 02:59:41;;;;;;;75.55;32.05;;;;;;;3.27;100.00;101928.91;5072886;28;20456;-66
2020/12/03 03:02:26;;;;;;;76.70;33.85;;;;;;;3.52;100.00;101936.59;5072982;28;20111;-66
2020/12/03 03:05:12;;;;;;;79.82;34.10;;;;;;;3.01;100.00;101947.06;5058402;28;20111;-67
2020/12/03 03:07:57;;;;;;;74.43;33.70;;;;;;;3.33;100.00;101931.69;5052942;28;20048;-68
2020/12/03 03:10:42;;;;;;;76.75;32.85;;;;;;;3.06;100.00;101938.56;5052752;28;20048;-67
2020/12/03 03:14:00;;;;;;;81.88;34.03;;;;;;;3.14;100.00;101934.53;5052996;28;20043;-67
2020/12/03 03:16:46;;;;;;;79.05;33.67;;;;;;;3.31;100.00;101942.84;5053152;28;20071;-67
2020/12/03 03:19:32;;;;;;;77.80;33.42;;;;;;;3.24;100.00;101936.59;5052689;28;20357;-67
2020/12/03 03:22:18;;;;;;;75.55;31.13;;;;;;;3.34;100.00;101936.03;5038419;28;20462;-67
2020/12/03 03:25:03;;;;;;;77.25;34.97;;;;;;;3.04;100.00;101945.44;5052179;28;20453;-67
2020/12/03 03:27:49;;;;;;;75.15;33.05;;;;;;;3.01;100.00;101941.88;5052585;28;20039;-67
2020/12/03 03:30:34;;;;;;;79.38;34.58;;;;;;;2.89;100.00;101942.34;5052444;28;20043;-67
2020/12/03 03:33:20;;;;;;;74.90;32.00;;;;;;;3.16;100.00;101947.53;5052933;28;20066;-67
2020/12/03 03:36:05;;;;;;;74.03;32.72;;;;;;;3.30;100.00;101941.09;5052589;28;20055;-66
2020/12/03 03:38:51;;;;;;;77.00;34.15;;;;;;;3.78;100.00;101945.16;5054773;28;20079;-66
2020/12/03 03:41:36;;;;;;;73.90;33.05;;;;;;;3.38;100.00;101940.47;5056903;28;20048;-67
2020/12/03 03:44:22;;;;;;;76.55;34.97;;;;;;;3.55;100.00;101941.88;5052417;28;20128;-67
2020/12/03 03:47:07;;;;;;;76.00;33.80;;;;;;;3.73;100.00;101931.16;5055069;28;20120;-66
2020/12/03 03:49:53;;;;;;;78.35;33.55;;;;;;;3.80;100.00;101934.00;5053122;28;20076;-67
2020/12/03 03:52:38;;;;;;;72.85;32.00;;;;;;;3.77;100.00;101935.59;5052313;28;20036;-67
2020/12/03 03:55:23;;;;;;;69.97;33.53;;;;;;;3.98;100.00;101926.72;5052029;28;20056;-66
2020/12/03 03:58:09;;;;;;;72.18;32.22;;;;;;;3.70;100.00;101933.69;5052103;28;20406;-66
2020/12/03 04:00:54;;;;;;;75.53;33.30;;;;;;;3.18;100.00;101931.19;5051661;28;20039;-66
2020/12/03 04:03:40;;;;;;;78.72;34.65;;;;;;;3.20;100.00;101937.31;5052887;28;20410;-67
2020/12/03 04:06:25;;;;;;;77.00;33.30;;;;;;;3.59;100.00;101935.97;5072049;28;20435;-67
2020/12/03 04:09:11;;;;;;;73.68;32.47;;;;;;;3.67;100.00;101931.00;5071850;28;20032;-66
2020/12/03 04:11:56;;;;;;;71.72;32.25;;;;;;;3.74;100.00;101932.94;5072095;28;20070;-67
2020/12/03 04:14:41;;;;;;;72.93;32.30;;;;;;;4.00;100.00;101927.66;5071838;28;20024;-66
2020/12/03 04:17:27;;;;;;;79.20;34.40;;;;;;;4.25;100.00;101921.41;5072236;28;20039;-67
2020/12/03 04:20:15;;;;;;;80.10;33.83;;;;;;;4.04;100.00;101919.13;5071593;28;20051;-67
2020/12/03 04:23:02;;;;;;;78.15;33.53;;;;;;;3.48;100.00;101921.78;5071976;28;20071;-67
2020/12/03 04:25:47;;;;;;;80.05;32.78;;;;;;;3.81;100.00;101922.78;5071553;28;20064;-67
2020/12/03 04:28:32;;;;;;;78.38;34.35;;;;;;;4.01;100.00;101926.81;5071874;28;20036;-66
2020/12/03 04:31:18;;;;;;;81.30;35.35;;;;;;;4.14;100.00;101933.25;5058002;28;20044;-66
2020/12/03 04:34:03;;;;;;;79.75;33.65;;;;;;;4.17;100.00;101931.59;5071691;28;20033;-66
2020/12/03 04:36:49;;;;;;;71.60;31.38;;;;;;;3.50;100.00;101927.88;5071834;28;20101;-67
2020/12/03 04:39:34;;;;;;;76.65;34.53;;;;;;;3.73;100.00;101924.28;5071782;28;20040;-67
2020/12/03 04:42:23;;;;;;;77.70;33.85;;;;;;;3.50;100.00;101919.25;5071787;28;20056;-67
2020/12/03 04:45:34;;;;;;;89.20;35.60;;;;;;;3.88;100.00;101926.44;5071523;28;20032;-67
2020/12/03 04:48:31;;;;;;;79.57;35.08;;;;;;;4.17;100.00;101918.63;5071896;28;20363;-67
2020/12/03 04:51:35;;;;;;;84.18;35.38;;;;;;;3.75;100.00;101932.09;5071740;28;20407;-67
2020/12/03 04:54:26;;;;;;;74.93;33.03;;;;;;;3.96;100.00;101919.75;5071475;28;20094;-67
2020/12/03 04:57:30;;;;;;;75.68;34.47;;;;;;;4.31;100.00;101912.09;5057747;28;20047;-67
2020/12/03 05:00:37;;;;;;;75.25;32.03;;;;;;;4.13;100.00;101908.13;5071229;28;20104;-67
2020/12/03 05:03:42;;;;;;;93.72;37.83;;;;;;;3.82;100.00;101903.78;5071420;28;20075;-66
2020/12/03 05:06:45;;;;;;;84.57;35.17;;;;;;;3.80;100.00;101910.66;5065300;28;20068;-67
2020/12/03 05:09:48;;;;;;;80.60;36.10;;;;;;;4.07;100.00;101910.56;5065103;28;20043;-67
2020/12/03 05:12:42;;;;;;;86.78;36.17;;;;;;;4.16;100.00;101908.22;5065696;28;20045;-67
2020/12/03 05:15:34;;;;;;;91.47;38.10;;;;;;;3.81;100.00;101903.75;5067634;28;20501;-67
2020/12/03 05:18:54;;;;;;;78.00;34.78;;;;;;;3.66;100.00;101914.56;5041145;28;20087;-67
2020/12/03 05:21:42;;;;;;;89.65;38.92;;;;;;;4.00;100.00;101921.59;5068846;28;20029;-67
2020/12/03 05:24:28;;;;;;;86.85;37.25;;;;;;;3.68;100.00;101917.19;5040850;28;20044;-67
2020/12/03 05:27:31;;;;;;;85.18;36.83;;;;;;;3.35;100.00;101914.50;5055122;28;20055;-67
2020/12/03 05:30:16;;;;;;;80.97;36.35;;;;;;;3.60;100.00;101909.22;5068301;28;20039;-67
2020/12/03 05:33:02;;;;;;;81.97;37.22;;;;;;;3.98;100.00;101902.53;5068717;28;20471;-67
2020/12/03 05:35:48;;;;;;;87.85;38.28;;;;;;;4.34;100.00;101906.13;5040752;28;20441;-68
2020/12/03 05:38:33;;;;;;;80.72;34.55;;;;;;;3.77;100.00;101902.78;5068624;28;20037;-67
2020/12/03 05:41:21;;;;;;;83.50;36.88;;;;;;;3.77;100.00;101913.16;5068409;28;20416;-68
2020/12/03 05:44:21;;;;;;;82.10;37.10;;;;;;;3.73;100.00;101903.53;5040537;28;20045;-67
2020/12/03 05:47:24;;;;;;;80.40;36.13;;;;;;;3.70;100.00;101900.84;5068659;28;20064;-67
2020/12/03 05:50:15;;;;;;;82.32;37.85;;;;;;;3.46;100.00;101904.47;5054126;28;20116;-67
2020/12/03 05:53:05;;;;;;;78.32;35.10;;;;;;;3.57;100.00;101906.53;5068435;28;20060;-68
2020/12/03 05:55:52;;;;;;;82.88;35.60;;;;;;;3.90;100.00;101911.81;5068249;28;20067;-66
2020/12/03 05:58:37;;;;;;;77.10;34.15;;;;;;;3.73;100.00;101908.72;5068259;28;20041;-66
2020/12/03 06:01:24;;;;;;;81.60;34.45;;;;;;;3.99;100.00;101906.88;5068309;28;20028;-66
2020/12/03 06:04:25;;;;;;;70.55;33.03;;;;;;;4.31;100.00;101913.81;5073249;28;20453;-68
2020/12/03 06:07:28;;;;;;;83.53;37.50;;;;;;;4.44;100.00;101916.78;5074379;28;20155;-67
2020/12/03 06:10:26;;;;;;;77.95;34.28;;;;;;;4.03;100.00;101914.75;5073859;28;20531;-67
2020/12/03 06:13:25;;;;;;;83.63;36.67;;;;;;;3.78;100.00;101914.91;5074305;28;20326;-67
2020/12/03 06:16:14;;;;;;;80.03;35.03;;;;;;;4.06;100.00;101909.66;5074162;28;20101;-67
2020/12/03 06:19:20;;;;;;;85.22;33.90;;;;;;;3.73;100.00;101908.72;5073626;28;20529;-67
2020/12/03 06:22:23;;;;;;;81.60;35.30;;;;;;;4.39;100.00;101909.72;5073855;28;20039;-67
2020/12/03 06:25:46;;;;;;;93.90;36.13;;;;;;;3.39;100.00;101905.09;5059492;28;20399;-67
2020/12/03 06:29:04;;;;;;;79.88;35.30;;;;;;;4.00;100.00;101912.09;5073852;28;20043;-66
2020/12/03 06:31:49;;;;;;;78.95;34.17;;;;;;;4.32;100.00;101913.88;5073627;28;20032;-67
2020/12/03 06:34:43;;;;;;;81.22;34.90;;;;;;;4.56;100.00;101918.81;5073559;28;20029;-67
2020/12/03 06:37:40;;;;;;;83.90;35.17;;;;;;;4.38;100.00;101926.13;5063795;28;20254;-66
2020/12/03 06:40:29;;;;;;;75.00;32.33;;;;;;;3.90;100.00;101928.22;5074441;28;20040;-68
2020/12/03 06:43:28;;;;;;;85.20;33.08;;;;;;;3.81;100.00;101922.78;5074310;28;20465;-67
2020/12/03 06:46:16;;;;;;;69.35;31.60;;;;;;;4.38;100.00;101937.34;5074818;28;20116;-66
2020/12/03 06:49:14;;;;;;;75.90;31.73;;;;;;;4.17;100.00;101928.13;5073910;28;20344;-66
2020/12/03 06:52:06;;;;;;;73.28;31.90;;;;;;;4.45;100.00;101928.91;5073850;28;20413;-66
2020/12/03 06:55:25;;;;;;;73.13;32.13;;;;;;;3.97;100.00;101924.09;5073048;28;20449;-67
2020/12/03 06:58:31;;;;;;;64.50;28.60;;;;;;;3.48;100.00;101926.09;5073296;28;20039;-67
2020/12/03 07:01:26;;;;;;;58.78;28.25;;;;;;;3.14;100.00;101923.31;5072968;28;20032;-66
2020/12/03 07:04:32;;;;;;;65.18;30.10;;;;;;;3.41;100.00;101922.44;5067146;28;20401;-67
2020/12/03 07:07:50;;;;;;;72.88;33.33;;;;;;;3.62;100.00;101930.84;5053339;28;20033;-67
2020/12/03 07:11:06;;;;;;;67.13;31.83;;;;;;;3.85;100.00;101916.84;5037551;28;20461;-67
2020/12/03 07:14:01;;;;;;;47.72;22.38;;;;;;;3.67;100.00;101920.63;5052678;28;20036;-67
2020/12/03 07:17:13;;;;;;;43.30;22.17;;;;;;;3.68;100.00;101925.88;5053032;28;20326;-67
2020/12/03 07:20:24;;;;;;;56.28;26.88;;;;;;;3.90;100.00;101929.97;5052281;28;20064;-67
2020/12/03 07:23:17;;;;;;;55.58;25.25;;;;;;;3.99;100.00;101940.59;5052637;28;20114;-67
2020/12/03 07:26:28;;;;;;;52.63;24.17;;;;;;;4.15;100.00;101924.63;5038069;28;20060;-66
2020/12/03 07:29:20;;;;;;;50.53;25.00;;;;;;;4.50;100.00;101927.31;5052214;28;20199;-66
2020/12/03 07:32:19;;;;;;;46.03;24.10;;;;;;;4.68;100.00;101925.19;5052555;28;20037;-68
2020/12/03 07:35:20;;;;;;;49.15;25.38;;;;;;;4.50;100.00;101927.31;5052120;28;20106;-66
2020/12/03 07:38:10;;;;;;;56.97;26.65;;;;;;;4.02;100.00;101927.72;5052397;28;20114;-67
2020/12/03 07:40:58;;;;;;;51.47;25.27;;;;;;;4.31;100.00;101935.44;5038535;28;20036;-67
2020/12/03 07:43:44;;;;;;;44.80;22.83;;;;;;;3.84;100.00;101933.25;5052397;28;20076;-67
2020/12/03 07:46:29;;;;;;;42.40;21.27;;;;;;;4.13;100.00;101936.63;5052393;28;20111;-67
2020/12/03 07:49:43;;;;;;;50.10;24.13;;;;;;;4.35;100.00;101936.41;5038031;28;20039;-67
2020/12/03 07:52:32;;;;;;;51.85;25.80;;;;;;;4.38;100.00;101939.09;5038493;28;20457;-67
2020/12/03 07:55:20;;;;;;;65.78;32.13;;;;;;;4.19;100.00;101935.09;5037567;28;20032;-68
2020/12/03 07:58:37;;;;;;;70.57;33.55;;;;;;;4.12;100.00;101924.53;5052037;28;20048;-66
2020/12/03 08:01:29;;;;;;;72.82;35.47;;;;;;;4.19;100.00;101911.75;5052118;28;20033;-66
2020/12/03 08:04:18;;;;;;;77.13;37.22;;;;;;;3.76;100.00;101926.06;5057848;28;20064;-66
2020/12/03 08:07:03;;;;;;;81.35;37.03;;;;;;;4.31;100.00;101924.19;5072095;28;20040;-66
2020/12/03 08:09:48;;;;;;;79.28;38.80;;;;;;;4.03;100.00;101927.72;5071882;28;20052;-67
2020/12/03 08:12:34;;;;;;;69.63;33.80;;;;;;;3.69;100.00;101931.91;5071769;28;20028;-67
2020/12/03 08:15:35;;;;;;;64.90;30.75;;;;;;;4.03;100.00;101942.44;5071823;28;20043;-66
2020/12/03 08:18:38;;;;;;;68.57;32.08;;;;;;;4.28;100.00;101944.84;5058062;28;20028;-67
2020/12/03 08:21:39;;;;;;;69.20;31.55;;;;;;;4.36;100.00;101933.84;5057739;28;20040;-67
2020/12/03 08:24:52;;;;;;;69.70;31.17;;;;;;;4.24;100.00;101935.22;5071149;28;20098;-68
2020/12/03 08:27:41;;;;;;;61.90;29.95;;;;;;;5.05;100.00;101926.97;5058370;28;20391;-67
2020/12/03 08:30:37;;;;;;;65.47;30.00;;;;;;;4.39;100.00;101933.06;5071576;28;20040;-67
2020/12/03 08:33:28;;;;;;;62.78;31.15;;;;;;;4.46;100.00;101927.19;5071905;28;20029;-68
2020/12/03 08:36:15;;;;;;;66.75;32.53;;;;;;;4.77;100.00;101921.94;5071749;28;20118;-67
2020/12/03 08:39:01;;;;;;;76.25;33.58;;;;;;;4.18;100.00;101910.00;5071866;28;20047;-67
2020/12/03 08:41:49;;;;;;;76.80;36.13;;;;;;;4.35;100.00;101902.69;5071607;28;20071;-67
2020/12/03 08:44:36;;;;;;;71.55;33.85;;;;;;;3.87;100.00;101907.38;5071442;28;20032;-67
2020/12/03 08:47:29;;;;;;;64.88;30.45;;;;;;;4.04;100.00;101903.56;5071807;28;20047;-66
2020/12/03 08:50:15;;;;;;;74.07;31.85;;;;;;;4.23;100.00;101900.63;5073663;28;20029;-66
2020/12/03 08:53:11;;;;;;;68.03;31.90;;;;;;;4.15;100.00;101886.56;5075791;28;20041;-66
2020/12/03 08:56:16;;;;;;;78.45;36.33;;;;;;;4.05;100.00;101889.78;5075607;28;20039;-66
2020/12/03 08:59:09;;;;;;;72.15;34.08;;;;;;;4.40;100.00;101880.31;5061570;28;20126;-65
2020/12/03 09:02:10;;;;;;;78.68;37.47;;;;;;;5.14;100.00;101881.31;5075515;28;20044;-66
2020/12/03 09:04:59;;;;;;;79.50;35.72;;;;;;;5.00;100.00;101872.34;5063375;28;20043;-65
2020/12/03 09:07:52;;;;;;;85.22;37.53;;;;;;;5.04;100.00;101868.06;5041531;28;20698;-69
2020/12/03 09:10:38;;;;;;;89.43;37.97;;;;;;;4.37;100.00;101880.25;5041877;28;20361;-66
2020/12/03 09:13:25;;;;;;;82.50;37.78;;;;;;;4.90;100.00;101875.53;5055680;28;20064;-66
2020/12/03 09:16:13;;;;;;;71.97;34.22;;;;;;;4.89;100.00;101873.78;5055933;28;20090;-66
2020/12/03 09:18:59;;;;;;;72.07;32.90;;;;;;;4.58;100.00;101870.41;5041483;28;20457;-66
2020/12/03 09:21:48;;;;;;;73.45;33.60;;;;;;;4.88;100.00;101868.56;5041668;28;20110;-64
2020/12/03 09:24:35;;;;;;;80.50;35.30;;;;;;;4.97;100.00;101879.16;5041020;28;20471;-64
2020/12/03 09:27:21;;;;;;;66.72;31.80;;;;;;;4.94;100.00;101876.47;5055430;28;20094;-64
2020/12/03 09:30:20;;;;;;;57.38;26.15;;;;;;;5.24;100.00;101869.41;5055004;28;20388;-64
2020/12/03 09:33:09;;;;;;;51.92;25.52;;;;;;;4.80;100.00;101857.13;5055604;28;20036;-64
2020/12/03 09:35:55;;;;;;;46.78;23.23;;;;;;;4.67;100.00;101858.53;5055694;28;20033;-65
2020/12/03 09:38:42;;;;;;;50.70;24.30;;;;;;;4.90;100.00;101859.97;5055568;28;20109;-65
2020/12/03 09:41:27;;;;;;;54.80;27.33;;;;;;;5.03;100.00;101845.56;5055765;28;20524;-64
2020/12/03 09:44:16;;;;;;;52.25;25.85;;;;;;;4.50;100.00;101848.56;5055541;28;20102;-65
2020/12/03 09:47:09;;;;;;;47.67;24.00;;;;;;;5.06;100.00;101848.19;5041908;28;20040;-64
2020/12/03 09:49:55;;;;;;;41.33;21.50;;;;;;;4.46;100.00;101845.03;5055838;28;20033;-64
2020/12/03 09:52:43;;;;;;;39.40;20.95;;;;;;;4.20;100.00;101847.81;5055673;28;20033;-64
2020/12/03 09:55:28;;;;;;;42.33;21.92;;;;;;;4.42;100.00;101838.00;5041797;28;20029;-65
2020/12/03 09:58:19;;;;;;;36.88;20.15;;;;;;;4.56;100.00;101828.88;5042049;28;20032;-64
2020/12/03 10:01:06;;;;;;;48.85;24.92;;;;;;;4.78;100.00;101835.41;5054541;28;20036;-65
2020/12/03 10:04:31;;;;;;;46.38;23.60;;;;;;;5.03;100.00;101825.63;5057094;28;20032;-64
2020/12/03 10:07:43;;;;;;;36.30;20.02;;;;;;;4.59;100.00;101812.50;5060360;28;20101;-64
2020/12/03 10:10:53;;;;;;;29.55;17.85;;;;;;;4.84;100.00;101822.59;5074019;28;20474;-65
2020/12/03 10:13:58;;;;;;;27.80;16.42;;;;;;;4.96;100.00;101808.19;5074169;28;20396;-64
2020/12/03 10:16:45;;;;;;;21.42;13.70;;;;;;;4.39;100.00;101800.75;5073862;28;20456;-64
2020/12/03 10:19:37;;;;;;;24.30;15.05;;;;;;;4.43;100.00;101793.06;5073581;28;20039;-64
2020/12/03 10:22:25;;;;;;;26.55;14.73;;;;;;;4.30;100.00;101791.00;5074349;28;20036;-64
2020/12/03 10:25:17;;;;;;;23.73;14.82;;;;;;;4.70;100.00;101785.03;5059903;28;20052;-65
2020/12/03 10:28:29;;;;;;;23.02;14.50;;;;;;;4.99;100.00;101782.25;5060038;28;20036;-65
2020/12/03 10:31:15;;;;;;;28.10;16.90;;;;;;;4.72;100.00;101767.81;5073878;28;20090;-66
2020/12/03 10:34:03;;;;;;;23.65;14.20;;;;;;;4.66;100.00;101771.13;5045624;28;20041;-66
2020/12/03 10:37:01;;;;;;;22.10;14.73;;;;;;;5.14;100.00;101769.63;5073777;28;20040;-64
2020/12/03 10:39:55;;;;;;;23.80;15.30;;;;;;;5.23;100.00;101769.78;5073609;28;20372;-64
2020/12/03 10:42:57;;;;;;;21.80;13.52;;;;;;;4.62;100.00;101758.91;5073120;28;20056;-65
2020/12/03 10:45:49;;;;;;;19.65;12.43;;;;;;;4.33;100.00;101756.47;5073178;28;20032;-65
2020/12/03 10:48:37;;;;;;;22.65;14.63;;;;;;;5.01;100.00;101759.81;5060030;28;20079;-64
2020/12/03 10:51:23;;;;;;;28.63;17.45;;;;;;;4.87;100.00;101766.41;5073504;28;20060;-64
2020/12/03 10:54:08;;;;;;;25.08;15.93;;;;;;;5.02;100.00;101766.75;5073265;28;20032;-65
2020/12/03 10:56:55;;;;;;;21.83;14.55;;;;;;;4.53;100.00;101756.13;5059650;28;20131;-64
2020/12/03 10:59:41;;;;;;;20.73;13.32;;;;;;;4.82;100.00;101754.16;5073112;28;20111;-66
2020/12/03 11:02:38;;;;;;;19.83;12.23;;;;;;;4.99;100.00;101753.69;5058968;28;20032;-64
2020/12/03 11:05:23;;;;;;;19.30;13.13;;;;;;;5.09;100.00;101753.06;5057103;28;20079;-64
2020/12/03 11:08:09;;;;;;;31.40;19.13;;;;;;;5.08;100.00;101750.44;5039341;28;20082;-65
2020/12/03 11:10:56;;;;;;;29.08;17.20;;;;;;;5.10;100.00;101744.41;5052638;28;20043;-64
2020/12/03 11:13:43;;;;;;;35.53;19.83;;;;;;;5.14;100.00;101745.34;5052667;28;20098;-65
2020/12/03 11:16:32;;;;;;;34.70;20.10;;;;;;;5.37;100.00;101744.09;5039429;28;20041;-64
2020/12/03 11:19:18;;;;;;;32.92;20.00;;;;;;;5.94;100.00;101739.16;5052431;28;20453;-64
2020/12/03 11:22:29;;;;;;;35.97;20.25;;;;;;;5.63;100.00;101740.28;5039057;28;20040;-64
2020/12/03 11:25:17;;;;;;;32.92;18.35;;;;;;;5.03;100.00;101747.72;5052557;28;20150;-65
2020/12/03 11:28:27;;;;;;;31.67;17.83;;;;;;;5.75;100.00;101742.22;5038858;28;20029;-65
2020/12/03 11:31:12;;;;;;;30.92;18.48;;;;;;;5.73;100.00;101744.81;5038866;28;20032;-65
2020/12/03 11:33:58;;;;;;;31.52;17.88;;;;;;;4.92;100.00;101744.03;5038649;28;20032;-64
2020/12/03 11:36:44;;;;;;;28.42;17.83;;;;;;;4.65;100.00;101743.44;5052815;28;20119;-65
2020/12/03 11:39:30;;;;;;;28.42;17.25;;;;;;;5.22;100.00;101746.38;5052715;28;20041;-65
2020/12/03 11:42:27;;;;;;;39.13;20.45;;;;;;;5.01;100.00;101739.03;5052453;28;20086;-64
2020/12/03 11:48:37;;;;;;;44.90;22.90;;;;;;;4.97;100.00;101733.75;5052849;28;20032;-64
2020/12/03 11:51:26;;;;;;;36.08;19.08;;;;;;;4.47;100.00;101729.16;5052806;28;20025;-65
2020/12/03 11:54:11;;;;;;;38.83;20.00;;;;;;;4.22;100.00;101734.63;5038514;28;20445;-64
2020/12/03 11:56:58;;;;;;;38.92;20.75;;;;;;;4.31;100.00;101740.03;5038470;28;20032;-65
2020/12/03 11:59:43;;;;;;;43.45;21.63;;;;;;;4.94;100.00;101736.25;5052145;28;20064;-65
2020/12/03 12:02:29;;;;;;;41.83;21.30;;;;;;;4.52;100.00;101730.13;5038437;28;20369;-65
2020/12/03 12:05:29;;;;;;;41.90;21.67;;;;;;;5.03;100.00;101736.47;5066016;28;20036;-65
2020/12/03 12:11:25;;;;;;;49.25;27.92;;;;;;;5.50;100.00;101735.69;5072095;28;20040;-65
2020/12/03 12:14:10;;;;;;;44.15;23.90;;;;;;;5.76;100.00;101723.19;5071960;28;20467;-65
2020/12/03 12:16:56;;;;;;;45.22;24.33;;;;;;;5.23;100.00;101735.16;5072303;28;20036;-65
2020/12/03 12:19:43;;;;;;;42.60;23.67;;;;;;;4.73;100.00;101721.13;5071762;28;20036;-66
2020/12/03 12:22:28;;;;;;;40.35;22.33;;;;;;;4.79;100.00;101712.59;5072253;28;20047;-64
2020/12/03 12:25:14;;;;;;;39.83;21.80;;;;;;;5.10;100.00;101714.97;5073875;28;20032;-65
2020/12/03 12:28:00;;;;;;;38.92;21.77;;;;;;;5.33;100.00;101722.38;5062256;28;20119;-64
2020/12/03 12:30:45;;;;;;;44.95;24.05;;;;;;;4.72;100.00;101718.47;5075879;28;20039;-65
2020/12/03 12:33:30;;;;;;;43.03;23.52;;;;;;;5.42;100.00;101716.47;5075988;28;20043;-65
2020/12/03 12:36:16;;;;;;;45.90;25.80;;;;;;;5.20;100.00;101717.78;5076491;28;20024;-64
2020/12/03 12:39:02;;;;;;;38.97;22.52;;;;;;;5.37;100.00;101718.13;5076227;28;20063;-64
2020/12/03 12:41:58;;;;;;;42.03;23.13;;;;;;;4.51;100.00;101718.00;5075881;28;20049;-65
2020/12/03 12:44:43;;;;;;;43.20;24.30;;;;;;;5.12;100.00;101715.88;5076091;28;20484;-64
2020/12/03 12:47:29;;;;;;;41.95;23.10;;;;;;;4.97;100.00;101711.25;5062005;28;20484;-65
2020/12/03 12:50:16;;;;;;;46.28;25.65;;;;;;;4.95;100.00;101706.88;5075595;28;20058;-64
2020/12/03 12:53:01;;;;;;;42.17;23.88;;;;;;;4.90;100.00;101709.38;5076034;28;20086;-65
2020/12/03 12:55:46;;;;;;;39.50;22.80;;;;;;;4.45;100.00;101695.41;5075654;28;20028;-65
2020/12/03 12:58:32;;;;;;;42.50;24.33;;;;;;;5.19;100.00;101690.06;5075538;28;20028;-65
2020/12/03 13:01:17;;;;;;;45.00;25.80;;;;;;;5.26;100.00;101681.53;5075458;28;20036;-65
2020/12/03 13:04:02;;;;;;;44.65;25.23;;;;;;;4.79;100.00;101682.28;5070530;28;20103;-64